Meath Environmental Platform

Observations

Time Sensor AQI SAQ Temp °C Hum % Pres Pa CO μg/m³ H₂S μg/m³ NO μg/m³ NO₂ μg/m³ O₃ μg/m³ SO₂ μg/m³ CO₂e PPM VOC PPM PM1 μg/m³ PM2.5 μg/m³ PM4 μg/m³ PM10 μg/m³ TPS µm
Tuesday 11 August 2026
03:44 Trim Patrick St 1 11.5 80 38,460 0.34 4.28 4.15 29.95 8.78 0 4.57 8.06 8.86
03:43 Trim Patrick St 1 11.5 80 38,460 0.35 3.76 4.15 26.93 10.51 0 5.43 9.46 10.41
03:42 Trim Patrick St 1 11.5 79 38,460 0.35 3.84 4.14 28.21 7.9 0 5.43 8.77 9.64
03:41 Trim Patrick St 1 11.5 79 38,460 0.34 4.33 4.16 29.05 8.67 0 7.14 10.18 11.19
03:39 Trim Patrick St 1 11.5 79 38,460 0.36 3.66 4.14 26.89 9.74 0 5.43 9.48 10.43
03:38 Trim Patrick St 1 11.5 79 38,460 0.35 3.97 4.16 28.19 8.19 0 4.57 8.08 8.89
03:37 Trim Market St 2 13.1 72 53,454 0.34 0 3.71 14.83 36.69 0 2.85 4.42 6.91
03:37 Trim Patrick St 1 11.5 79 38,460 0.36 3.61 4.13 28.19 8.53 0 5.43 8.78 9.66
03:36 Trim Market St 2 13.1 72 53,518 0.34 0 3.71 16.87 35.29 0 2.14 3.46 5.68
03:36 Trim Patrick St 1 11.6 79 38,460 0.34 3.84 4.13 28.11 9 0 3.71 7.39 8.12
03:35 Trim Patrick St 1 11.6 79 38,460 0.34 3.53 4.13 26.82 10.03 0 4.57 8.79 9.67
03:34 Trim Market St 2 13.1 72 53,687 0.35 0 3.7 15.03 38.43 0 2.85 4.43 7.53
03:34 Trim Patrick St 1 11.6 79 38,460 0.34 3.74 4.13 29.39 8 0 4.57 8.8 9.68
03:33 Trim Market St 2 13.1 72 53,792 0.34 0 3.7 16.27 35.81 0 2.14 4.44 7.53
03:33 Trim Patrick St 1 11.6 79 38,460 0.34 3.82 4.13 27.67 8.97 0 4.57 8.09 8.9
03:32 Trim Market St 2 13.1 72 53,909 0.35 0 3.57 18.83 44.75 0 2.85 4.44 6.91
03:32 Trim Patrick St 1 11.6 79 38,460 0.35 3.66 4.13 27.66 11.12 0 4.57 8.8 9.68
03:31 Trim Patrick St 1 11.6 79 38,460 0.34 3.95 4.13 26.8 10.84 0 4.57 8.8 9.68
03:29 Trim Market St 2 13.2 71 54,250 0.33 0 3.55 17.99 37.16 0 2.14 3.96 7.53
03:29 Trim Patrick St 1 11.6 79 38,460 0.35 5.6 4.13 36.93 5.98 0 4.57 8.83 9.71